This is the latest recevied weather packets stored in our database for station/object WB6ANP. If no packets are shown the sender has not sent any weather packets the latest 10 day(s).
| Time | Temp. | Humidity | Pressure | Rain* | Wind** | Luminosity | Snow |
|---|---|---|---|---|---|---|---|
| 1777504644 | 15.56° C | 77% | 1013.9 hPa | 0 mm | - | 19 W/m² | - |
| 1777504341 | 15.56° C | 77% | 1013.4 hPa | 0 mm | - | 22 W/m² | - |
| 1777504041 | 15.56° C | 77% | 1012.7 hPa | 0 mm | - | 65 W/m² | - |
| 1777503738 | 15.56° C | 77% | 1012.8 hPa | 0 mm | - | 58 W/m² | - |
| 1777503435 | 15.56° C | 77% | 1013 hPa | 0 mm | - | 42 W/m² | - |
| 1777503130 | 16.11° C | 76% | 1012.7 hPa | 0 mm | - | 71 W/m² | - |
| 1777502828 | 16.11° C | 75% | 1013.1 hPa | 0 mm | - | 64 W/m² | - |
| 1777502525 | 16.11° C | 75% | 1012.7 hPa | 0 mm | - | 169 W/m² | - |
| 1777502222 | 16.11° C | 75% | 1012.9 hPa | 0 mm | - | 207 W/m² | - |
| 1777501919 | 16.11° C | 74% | 1012.9 hPa | 0 mm | - | 180 W/m² | - |
| 1777501616 | 16.11° C | 75% | 1013.2 hPa | 0 mm | - | 154 W/m² | - |
| 1777501313 | 16.11° C | 75% | 1013.4 hPa | 0 mm | - | 148 W/m² | - |
| 1777501011 | 16.11° C | 75% | 1013.5 hPa | 0 mm | - | 135 W/m² | - |
| 1777500709 | 16.11° C | 75% | 1013.8 hPa | 0 mm | - | 138 W/m² | - |
| 1777500405 | 16.11° C | 75% | 1013.8 hPa | 0 mm | - | 96 W/m² | - |
| 1777500101 | 16.67° C | 76% | 1013.8 hPa | 0 mm | - | 80 W/m² | - |
| 1777499798 | 16.67° C | 76% | 1013.9 hPa | 0 mm | - | 112 W/m² | - |
| 1777499494 | 16.67° C | 75% | 1014 hPa | 0 mm | - | 105 W/m² | - |
| 1777499193 | 16.67° C | 74% | 1014.1 hPa | 0 mm | - | 106 W/m² | - |
| 1777498889 | 16.67° C | 75% | 1013.9 hPa | 0 mm | - | 139 W/m² | - |
| 1777498586 | 16.67° C | 75% | 1013.8 hPa | 0 mm | - | 113 W/m² | - |
| 1777498281 | 16.67° C | 75% | 1014 hPa | 0 mm | - | 92 W/m² | - |
| 1777497981 | 16.67° C | 74% | 1013.9 hPa | 0 mm | - | 118 W/m² | - |
| 1777497676 | 16.67° C | 74% | 1013.9 hPa | 0 mm | - | 122 W/m² | - |
| 1777497373 | 16.67° C | 73% | 1013.9 hPa | 0 mm | - | 135 W/m² | - |
* Rain latest hour (hover to see other rain measurements)
** Current wind speed in m/s (hover to see current wind gust speed)